< < Back
Terminal Aerodrome Forecast


Current Version              Previous Versions:   1  2  3  4  5  6  7  8  9  

Terminal Aerodrome Forecast

372
FTUS44 KBMX 282000 AAA
TAFBHM
TAF AMD
KBHM 282005Z 2820/2918 24005KT P6SM FEW070 SCT250
     FM290300 00000KT P6SM SKC
     FM291500 18004KT P6SM SKC=



Latest METAR

045
SAUS70 KWBC 291800 RRB
MTRBHM
METAR KBHM 291753Z 15013G18KT 10SM FEW070 BKN250 33/16 A3006 RMK AO2
SLP170 T03280161 10328 20200 58004


USA.gov is the U.S. government's official web portal to all federal, state and local government web resources and services.